createdAt,value
2023-05-14T00:00:03.406Z,1803.00
2023-05-14T00:01:03.405Z,1784.00
2023-05-14T00:02:03.444Z,1789.00
2023-05-14T00:03:03.463Z,1774.00
2023-05-14T00:04:03.459Z,1793.00
2023-05-14T00:05:03.409Z,1782.00
2023-05-14T00:06:03.408Z,1790.00
2023-05-14T00:07:03.415Z,1803.00
2023-05-14T00:08:03.421Z,1774.00
2023-05-14T00:09:03.400Z,1795.00
2023-05-14T00:10:03.425Z,1777.00
2023-05-14T00:11:03.400Z,1772.00
2023-05-14T00:12:03.420Z,1775.00
2023-05-14T00:13:03.439Z,1781.00
2023-05-14T00:14:03.416Z,1785.00
2023-05-14T00:15:03.443Z,1779.00
2023-05-14T00:16:03.497Z,1770.00
2023-05-14T00:17:03.441Z,1766.00
2023-05-14T00:18:03.484Z,1770.00
2023-05-14T00:19:03.456Z,1764.00
2023-05-14T00:20:03.459Z,1786.00
2023-05-14T00:21:03.509Z,1761.00
2023-05-14T00:22:03.554Z,1757.00
2023-05-14T00:23:03.609Z,1747.00
2023-05-14T00:24:03.665Z,1758.00
2023-05-14T00:25:03.746Z,1754.00
2023-05-14T00:26:03.774Z,1759.00
2023-05-14T00:27:03.809Z,1765.00
2023-05-14T00:28:03.958Z,1768.00
2023-05-14T00:29:03.919Z,1749.00
2023-05-14T00:30:03.978Z,1755.00
2023-05-14T00:31:04.077Z,1745.00
2023-05-14T00:32:04.081Z,1758.00
2023-05-14T00:33:04.205Z,1757.00
2023-05-14T00:34:04.180Z,1754.00
2023-05-14T00:35:04.276Z,1744.00
2023-05-14T00:36:04.346Z,1756.00
2023-05-14T00:37:04.329Z,1732.00
2023-05-14T00:38:04.385Z,1734.00
2023-05-14T00:39:04.443Z,1740.00
2023-05-14T00:40:04.474Z,1739.00
2023-05-14T00:41:04.537Z,1750.00
2023-05-14T00:42:04.566Z,1751.00
2023-05-14T00:43:04.614Z,1747.00
2023-05-14T00:44:04.669Z,1732.00
2023-05-14T00:45:04.787Z,1743.00
2023-05-14T00:46:04.718Z,1744.00
2023-05-14T00:47:04.840Z,1744.00
2023-05-14T00:48:04.782Z,1747.00
2023-05-14T00:49:04.722Z,1750.00
2023-05-14T00:50:04.760Z,1749.00
2023-05-14T00:51:04.720Z,1749.00
2023-05-14T00:52:04.716Z,1724.00
2023-05-14T00:53:04.715Z,1732.00
2023-05-14T00:54:04.718Z,1731.00
2023-05-14T00:55:04.738Z,1747.00
2023-05-14T00:56:04.729Z,1729.00
2023-05-14T00:57:04.720Z,1722.00
2023-05-14T00:58:04.738Z,1729.00
2023-05-14T00:59:04.798Z,1715.00
2023-05-14T01:00:04.859Z,1734.00
2023-05-14T01:01:04.937Z,1724.00
2023-05-14T01:02:04.955Z,1729.00
2023-05-14T01:03:05.076Z,1731.00
2023-05-14T01:04:05.089Z,1729.00
2023-05-14T01:05:05.211Z,1719.00
2023-05-14T01:06:05.173Z,1726.00
2023-05-14T01:07:05.227Z,1728.00
2023-05-14T01:08:05.295Z,1711.00
2023-05-14T01:09:05.341Z,1729.00
2023-05-14T01:10:05.395Z,1724.00
2023-05-14T01:11:05.444Z,1713.00
2023-05-14T01:12:05.509Z,1736.00
2023-05-14T01:13:05.572Z,1714.00
2023-05-14T01:14:05.624Z,1710.00
2023-05-14T01:15:05.689Z,1713.00
2023-05-14T01:16:05.789Z,1705.00
2023-05-14T01:17:05.807Z,1706.00
2023-05-14T01:18:05.918Z,1704.00
2023-05-14T01:19:05.945Z,1715.00
2023-05-14T01:20:05.975Z,1690.00
2023-05-14T01:21:06.041Z,1697.00
2023-05-14T01:22:06.090Z,1689.00
2023-05-14T01:23:06.131Z,1704.00
2023-05-14T01:24:06.128Z,1705.00
2023-05-14T01:25:06.140Z,1706.00
2023-05-14T01:26:06.129Z,1706.00
2023-05-14T01:27:06.133Z,1707.00
2023-05-14T01:28:06.126Z,1706.00
2023-05-14T01:29:06.113Z,1699.00
2023-05-14T01:30:06.148Z,1698.00
2023-05-14T01:31:06.109Z,1696.00
2023-05-14T01:32:06.189Z,1715.00
2023-05-14T01:33:06.170Z,1710.00
2023-05-14T01:34:06.114Z,1690.00
2023-05-14T01:35:06.174Z,1687.00
2023-05-14T01:36:06.194Z,1686.00
2023-05-14T01:37:06.263Z,1692.00
2023-05-14T01:38:06.316Z,1688.00
2023-05-14T01:39:06.367Z,1692.00
2023-05-14T01:40:06.422Z,1686.00
2023-05-14T01:41:06.466Z,1677.00
2023-05-14T01:42:06.529Z,1685.00
2023-05-14T01:43:06.655Z,1677.00
2023-05-14T01:44:06.603Z,1685.00
2023-05-14T01:45:06.691Z,1676.00
2023-05-14T01:46:06.746Z,1674.00
2023-05-14T01:47:06.777Z,1684.00
2023-05-14T01:48:06.848Z,1678.00
2023-05-14T01:49:06.874Z,1673.00
2023-05-14T01:50:06.933Z,1670.00
2023-05-14T01:51:06.978Z,1676.00
2023-05-14T01:52:07.037Z,1668.00
2023-05-14T01:53:07.110Z,1658.00
2023-05-14T01:54:07.129Z,1669.00
2023-05-14T01:55:07.212Z,1663.00
2023-05-14T01:56:07.241Z,1675.00
2023-05-14T01:57:07.288Z,1676.00
2023-05-14T01:58:07.338Z,1664.00
2023-05-14T01:59:07.382Z,1661.00
2023-05-14T02:00:07.490Z,1661.00
2023-05-14T02:01:07.500Z,1657.00
2023-05-14T02:02:07.528Z,1663.00
2023-05-14T02:03:07.667Z,1659.00
2023-05-14T02:04:07.696Z,1640.00
2023-05-14T02:05:07.690Z,1657.00
2023-05-14T02:06:07.734Z,1652.00
2023-05-14T02:07:07.801Z,1650.00
2023-05-14T02:08:07.846Z,1657.00
2023-05-14T02:09:07.935Z,1650.00
2023-05-14T02:10:07.986Z,1650.00
2023-05-14T02:11:08.000Z,1646.00
2023-05-14T02:12:08.061Z,1649.00
2023-05-14T02:13:08.057Z,1650.00
2023-05-14T02:14:08.047Z,1650.00
2023-05-14T02:15:08.059Z,1651.00
2023-05-14T02:16:08.167Z,1649.00
2023-05-14T02:17:08.070Z,1656.00
2023-05-14T02:18:08.053Z,1651.00
2023-05-14T02:19:08.194Z,1663.00
2023-05-14T02:20:08.031Z,1646.00
2023-05-14T02:21:08.033Z,1647.00
2023-05-14T02:22:08.028Z,1644.00
2023-05-14T02:23:08.048Z,1632.00
2023-05-14T02:24:08.086Z,1661.00
2023-05-14T02:25:08.150Z,1637.00
2023-05-14T02:26:08.201Z,1635.00
2023-05-14T02:27:08.245Z,1637.00
2023-05-14T02:28:08.284Z,1621.00
2023-05-14T02:29:08.330Z,1643.00
2023-05-14T02:30:08.386Z,1648.00
2023-05-14T02:31:08.463Z,1631.00
2023-05-14T02:32:08.546Z,1628.00
2023-05-14T02:33:08.593Z,1621.00
2023-05-14T02:34:08.595Z,1640.00
2023-05-14T02:35:08.625Z,1625.00
2023-05-14T02:36:08.682Z,1621.00
2023-05-14T02:37:08.715Z,1637.00
2023-05-14T02:38:08.764Z,1618.00
2023-05-14T02:39:08.827Z,1610.00
2023-05-14T02:40:08.866Z,1618.00
2023-05-14T02:41:08.921Z,1618.00
2023-05-14T02:42:08.959Z,1617.00
2023-05-14T02:43:09.006Z,1614.00
2023-05-14T02:44:09.060Z,1606.00
2023-05-14T02:45:09.118Z,1624.00
2023-05-14T02:46:09.180Z,1623.00
2023-05-14T02:47:09.366Z,1588.00
2023-05-14T02:48:09.350Z,1565.00
2023-05-14T02:49:09.267Z,1566.00
2023-05-14T02:50:09.249Z,1455.00
2023-05-14T02:51:09.252Z,1329.00
2023-05-14T02:52:09.230Z,1282.00
2023-05-14T02:53:09.247Z,1243.00
2023-05-14T02:54:09.226Z,1246.00
2023-05-14T02:55:09.208Z,1169.00
2023-05-14T02:56:09.204Z,1151.00
2023-05-14T02:57:09.218Z,1092.00
2023-05-14T02:58:09.193Z,1046.00
2023-05-14T02:59:09.220Z,997.00
2023-05-14T03:00:09.208Z,958.00
2023-05-14T03:01:09.281Z,905.00
2023-05-14T03:02:09.300Z,893.00
2023-05-14T03:03:09.259Z,855.00
2023-05-14T03:04:09.238Z,809.00
2023-05-14T03:05:09.228Z,771.00
2023-05-14T03:06:09.247Z,749.00
2023-05-14T03:07:09.228Z,735.00
2023-05-14T03:08:09.296Z,684.00
2023-05-14T03:09:09.241Z,687.00
2023-05-14T03:10:09.240Z,658.00
2023-05-14T03:11:09.261Z,647.00
2023-05-14T03:12:09.253Z,633.00
2023-05-14T03:13:09.264Z,627.00
2023-05-14T03:14:09.263Z,619.00
2023-05-14T03:15:09.272Z,603.00
2023-05-14T03:16:09.284Z,605.00
2023-05-14T03:17:09.335Z,585.00
2023-05-14T03:18:09.332Z,594.00
2023-05-14T03:19:09.398Z,580.00
2023-05-14T03:20:09.303Z,579.00
2023-05-14T03:21:09.325Z,592.00
2023-05-14T03:22:09.340Z,562.00
2023-05-14T03:23:09.439Z,581.00
2023-05-14T03:24:09.465Z,580.00
2023-05-14T03:25:09.424Z,570.00
2023-05-14T03:26:09.454Z,559.00
2023-05-14T03:27:09.482Z,542.00
2023-05-14T03:28:09.496Z,550.00
2023-05-14T03:29:09.530Z,532.00
2023-05-14T03:30:09.600Z,533.00
2023-05-14T03:31:09.655Z,551.00
2023-05-14T03:32:09.633Z,531.00
2023-05-14T03:33:09.671Z,536.00
2023-05-14T03:34:09.714Z,519.00
2023-05-14T03:35:09.709Z,519.00
2023-05-14T03:36:09.723Z,519.00
2023-05-14T03:37:09.706Z,521.00
2023-05-14T03:38:09.716Z,523.00
2023-05-14T03:39:09.751Z,526.00
2023-05-14T03:40:09.704Z,528.00
2023-05-14T03:41:09.731Z,524.00
2023-05-14T03:42:09.710Z,524.00
2023-05-14T03:43:09.724Z,524.00
2023-05-14T03:44:09.730Z,520.00
2023-05-14T03:45:09.735Z,524.00
2023-05-14T03:46:09.763Z,508.00
2023-05-14T03:47:09.758Z,503.00
2023-05-14T03:48:09.852Z,518.00
2023-05-14T03:49:09.818Z,501.00
2023-05-14T03:50:09.775Z,517.00
2023-05-14T03:51:09.792Z,511.00
2023-05-14T03:52:09.779Z,498.00
2023-05-14T03:53:09.775Z,511.00
2023-05-14T03:54:09.785Z,516.00
2023-05-14T03:55:09.793Z,515.00
2023-05-14T03:56:09.863Z,512.00
2023-05-14T03:57:09.902Z,512.00
2023-05-14T03:58:09.959Z,517.00
2023-05-14T03:59:09.996Z,514.00
2023-05-14T04:00:10.066Z,518.00
2023-05-14T04:01:10.113Z,518.00
2023-05-14T04:02:10.209Z,509.00
2023-05-14T04:03:10.322Z,500.00
2023-05-14T04:04:10.412Z,515.00
2023-05-14T04:05:10.411Z,507.00
2023-05-14T04:06:10.420Z,508.00
2023-05-14T04:07:10.454Z,512.00
2023-05-14T04:08:10.547Z,516.00
2023-05-14T04:09:10.593Z,512.00
2023-05-14T04:10:10.646Z,503.00
2023-05-14T04:11:10.708Z,512.00
2023-05-14T04:12:10.805Z,515.00
2023-05-14T04:13:10.826Z,513.00
2023-05-14T04:14:10.845Z,513.00
2023-05-14T04:15:10.845Z,513.00
2023-05-14T04:16:10.897Z,510.00
2023-05-14T04:17:10.871Z,509.00
2023-05-14T04:18:10.932Z,506.00
2023-05-14T04:19:10.943Z,512.00
2023-05-14T04:20:10.894Z,509.00
2023-05-14T04:21:10.873Z,508.00
2023-05-14T04:22:10.884Z,516.00
2023-05-14T04:23:10.904Z,514.00
2023-05-14T04:24:10.890Z,511.00
2023-05-14T04:25:10.954Z,508.00
2023-05-14T04:26:11.046Z,504.00
2023-05-14T04:27:11.084Z,502.00
2023-05-14T04:28:11.180Z,500.00
2023-05-14T04:29:11.239Z,502.00
2023-05-14T04:30:11.317Z,500.00
2023-05-14T04:31:11.408Z,500.00
2023-05-14T04:32:11.441Z,500.00
2023-05-14T04:33:11.516Z,500.00
2023-05-14T04:34:11.588Z,501.00
2023-05-14T04:35:11.626Z,501.00
2023-05-14T04:36:11.700Z,500.00
2023-05-14T04:37:11.725Z,500.00
2023-05-14T04:38:11.710Z,500.00
2023-05-14T04:39:11.730Z,502.00
2023-05-14T04:40:11.744Z,500.00
2023-05-14T04:41:11.746Z,502.00
2023-05-14T04:42:11.744Z,503.00
2023-05-14T04:43:11.741Z,504.00
2023-05-14T04:44:11.769Z,505.00
2023-05-14T04:45:11.755Z,511.00
2023-05-14T04:46:11.841Z,505.00
2023-05-14T04:47:11.790Z,509.00
2023-05-14T04:48:11.817Z,506.00
2023-05-14T04:49:11.796Z,508.00
2023-05-14T04:50:11.826Z,512.00
2023-05-14T04:51:11.858Z,516.00
2023-05-14T04:52:11.905Z,512.00
2023-05-14T04:53:11.982Z,518.00
2023-05-14T04:54:12.075Z,512.00
2023-05-14T04:55:12.122Z,517.00
2023-05-14T04:56:12.202Z,519.00
2023-05-14T04:57:12.197Z,519.00
2023-05-14T04:58:12.200Z,519.00
2023-05-14T04:59:12.221Z,521.00
2023-05-14T05:00:12.225Z,519.00
2023-05-14T05:01:12.287Z,519.00
2023-05-14T05:02:12.262Z,519.00
2023-05-14T05:03:12.327Z,520.00
2023-05-14T05:04:12.323Z,520.00
2023-05-14T05:05:12.279Z,521.00
2023-05-14T05:06:12.337Z,519.00
2023-05-14T05:07:12.307Z,517.00
2023-05-14T05:08:12.330Z,514.00
2023-05-14T05:09:12.364Z,514.00
2023-05-14T05:10:12.352Z,513.00
2023-05-14T05:11:12.374Z,514.00
2023-05-14T05:12:12.415Z,515.00
2023-05-14T05:13:12.408Z,514.00
2023-05-14T05:14:12.412Z,514.00
2023-05-14T05:15:12.428Z,514.00
2023-05-14T05:16:12.497Z,515.00
2023-05-14T05:17:12.446Z,516.00
2023-05-14T05:18:12.475Z,515.00
2023-05-14T05:19:12.671Z,513.00
2023-05-14T05:20:12.471Z,509.00
2023-05-14T05:21:12.503Z,512.00
2023-05-14T05:22:12.481Z,507.00
2023-05-14T05:23:12.489Z,512.00
2023-05-14T05:24:12.501Z,510.00
2023-05-14T05:25:12.521Z,507.00
2023-05-14T05:26:12.568Z,505.00
2023-05-14T05:27:12.632Z,502.00
2023-05-14T05:28:12.687Z,500.00
2023-05-14T05:29:12.750Z,502.00
2023-05-14T05:30:12.838Z,503.00
2023-05-14T05:31:12.936Z,501.00
2023-05-14T05:32:12.938Z,506.00
2023-05-14T05:33:13.015Z,502.00
2023-05-14T05:34:13.073Z,504.00
2023-05-14T05:35:13.142Z,503.00
2023-05-14T05:36:13.210Z,501.00
2023-05-14T05:37:13.271Z,501.00
2023-05-14T05:38:13.333Z,503.00
2023-05-14T05:39:13.409Z,501.00
2023-05-14T05:40:13.462Z,506.00
2023-05-14T05:41:13.520Z,502.00
2023-05-14T05:42:13.625Z,509.00
2023-05-14T05:43:13.675Z,504.00
2023-05-14T05:44:13.721Z,504.00
2023-05-14T05:45:13.780Z,508.00
2023-05-14T05:46:13.901Z,507.00
2023-05-14T05:47:13.940Z,509.00
2023-05-14T05:48:13.974Z,511.00
2023-05-14T05:49:14.043Z,510.00
2023-05-14T05:50:14.134Z,512.00
2023-05-14T05:51:14.173Z,512.00
2023-05-14T05:52:14.258Z,514.00
2023-05-14T05:53:14.318Z,515.00
2023-05-14T05:54:14.378Z,509.00
2023-05-14T05:55:14.450Z,510.00
2023-05-14T05:56:14.512Z,500.00
2023-05-14T05:57:14.577Z,503.00
2023-05-14T05:58:14.654Z,502.00
2023-05-14T05:59:14.779Z,500.00
2023-05-14T06:00:14.773Z,500.00
2023-05-14T06:01:14.847Z,505.00
2023-05-14T06:02:14.987Z,502.00
2023-05-14T06:03:15.028Z,505.00
2023-05-14T06:04:15.053Z,503.00
2023-05-14T06:05:15.184Z,502.00
2023-05-14T06:06:15.199Z,500.00
2023-05-14T06:07:15.257Z,501.00
2023-05-14T06:08:15.356Z,506.00
2023-05-14T06:09:15.472Z,506.00
2023-05-14T06:10:15.505Z,504.00
2023-05-14T06:11:15.556Z,506.00
2023-05-14T06:12:15.633Z,505.00
2023-05-14T06:13:15.702Z,504.00
2023-05-14T06:14:15.717Z,505.00
2023-05-14T06:15:15.707Z,505.00
2023-05-14T06:16:15.751Z,506.00
2023-05-14T06:17:15.728Z,507.00
2023-05-14T06:18:15.743Z,509.00
2023-05-14T06:19:15.860Z,505.00
2023-05-14T06:20:15.753Z,506.00
2023-05-14T06:21:15.759Z,508.00
2023-05-14T06:22:15.785Z,509.00
2023-05-14T06:23:15.779Z,511.00
2023-05-14T06:24:15.779Z,511.00
2023-05-14T06:25:15.781Z,508.00
2023-05-14T06:26:15.802Z,507.00
2023-05-14T06:27:15.791Z,502.00
2023-05-14T06:28:15.800Z,510.00
2023-05-14T06:29:15.801Z,504.00
2023-05-14T06:30:15.832Z,503.00
2023-05-14T06:31:15.887Z,503.00
2023-05-14T06:32:16.063Z,503.00
2023-05-14T06:33:16.025Z,504.00
2023-05-14T06:34:16.086Z,506.00
2023-05-14T06:35:16.144Z,500.00
2023-05-14T06:36:16.203Z,503.00
2023-05-14T06:37:16.269Z,500.00
2023-05-14T06:38:16.319Z,501.00
2023-05-14T06:39:16.380Z,503.00
2023-05-14T06:40:16.437Z,502.00
2023-05-14T06:41:16.500Z,503.00
2023-05-14T06:42:16.561Z,501.00
2023-05-14T06:43:16.615Z,500.00
2023-05-14T06:44:16.665Z,501.00
2023-05-14T06:45:16.712Z,505.00
2023-05-14T06:46:16.776Z,501.00
2023-05-14T06:47:16.825Z,503.00
2023-05-14T06:48:16.998Z,501.00
2023-05-14T06:49:17.111Z,504.00
2023-05-14T06:50:16.989Z,500.00
2023-05-14T06:51:17.048Z,500.00
2023-05-14T06:52:17.077Z,502.00
2023-05-14T06:53:17.199Z,501.00
2023-05-14T06:54:17.196Z,500.00
2023-05-14T06:55:17.236Z,502.00
2023-05-14T06:56:17.294Z,503.00
2023-05-14T06:57:17.349Z,501.00
2023-05-14T06:58:17.413Z,508.00
2023-05-14T06:59:17.497Z,505.00
2023-05-14T07:00:17.548Z,502.00
2023-05-14T07:01:17.694Z,500.00
2023-05-14T07:02:17.685Z,507.00
2023-05-14T07:03:17.755Z,514.00
2023-05-14T07:04:17.836Z,513.00
2023-05-14T07:05:17.863Z,523.00
2023-05-14T07:06:17.944Z,528.00
2023-05-14T07:07:17.979Z,526.00
2023-05-14T07:08:18.040Z,522.00
2023-05-14T07:09:18.123Z,520.00
2023-05-14T07:10:18.191Z,514.00
2023-05-14T07:11:18.251Z,510.00
2023-05-14T07:12:18.323Z,512.00
2023-05-14T07:13:18.378Z,500.00
2023-05-14T07:14:18.453Z,504.00
2023-05-14T07:15:18.542Z,503.00
2023-05-14T07:16:18.598Z,506.00
2023-05-14T07:17:18.745Z,501.00
2023-05-14T07:18:18.771Z,505.00
2023-05-14T07:19:18.891Z,500.00
2023-05-14T07:20:18.882Z,501.00
2023-05-14T07:21:18.956Z,501.00
2023-05-14T07:22:19.042Z,503.00
2023-05-14T07:23:19.971Z,500.00
2023-05-14T07:24:19.117Z,500.00
2023-05-14T07:25:19.114Z,500.00
2023-05-14T07:26:19.108Z,499.00
2023-05-14T07:27:19.112Z,487.00
2023-05-14T07:28:19.102Z,479.00
2023-05-14T07:29:19.136Z,500.00
2023-05-14T07:30:19.108Z,500.00
2023-05-14T07:31:19.180Z,499.00
2023-05-14T07:32:19.119Z,500.00
2023-05-14T07:33:19.151Z,500.00
2023-05-14T07:34:19.241Z,500.00
2023-05-14T07:35:19.298Z,502.00
2023-05-14T07:36:19.377Z,502.00
2023-05-14T07:37:19.811Z,501.00
2023-05-14T07:38:19.509Z,500.00
2023-05-14T07:39:19.518Z,499.00
2023-05-14T07:40:19.526Z,495.00
2023-05-14T07:41:19.516Z,489.00
2023-05-14T07:42:28.287Z,487.00
2023-05-14T07:43:20.563Z,487.00
2023-05-14T07:44:19.531Z,480.00
2023-05-14T07:45:19.531Z,475.00
2023-05-14T07:46:19.549Z,462.00
2023-05-14T07:47:19.576Z,458.00
2023-05-14T07:48:19.593Z,459.00
2023-05-14T07:49:19.549Z,441.00
2023-05-14T07:50:19.555Z,433.00
2023-05-14T07:51:19.551Z,420.00
2023-05-14T07:52:19.586Z,406.00
2023-05-14T07:53:19.562Z,444.00
2023-05-14T07:54:19.562Z,492.00
2023-05-14T07:55:19.566Z,501.00
2023-05-14T07:56:19.612Z,499.00
2023-05-14T07:57:19.683Z,503.00
2023-05-14T07:58:19.669Z,500.00
2023-05-14T07:59:19.690Z,494.00
2023-05-14T08:00:19.687Z,492.00
2023-05-14T08:01:19.696Z,484.00
2023-05-14T08:02:19.740Z,485.00
2023-05-14T08:03:19.904Z,500.00
2023-05-14T08:04:19.802Z,500.00
2023-05-14T08:05:19.727Z,500.00
2023-05-14T08:06:19.741Z,501.00
2023-05-14T08:07:19.823Z,504.00
2023-05-14T08:08:19.884Z,509.00
2023-05-14T08:09:19.962Z,506.00
2023-05-14T08:10:20.140Z,501.00
2023-05-14T08:11:20.076Z,501.00
2023-05-14T08:12:20.057Z,499.00
2023-05-14T08:13:20.053Z,488.00
2023-05-14T08:14:20.060Z,489.00
2023-05-14T08:15:20.087Z,489.00
2023-05-14T08:16:20.156Z,484.00
2023-05-14T08:17:20.095Z,484.00
2023-05-14T08:18:20.086Z,482.00
2023-05-14T08:19:20.231Z,501.00
2023-05-14T08:20:20.102Z,504.00
2023-05-14T08:21:20.112Z,504.00
2023-05-14T08:22:20.123Z,504.00
2023-05-14T08:23:20.121Z,502.00
2023-05-14T08:24:20.180Z,504.00
2023-05-14T08:25:20.233Z,504.00
2023-05-14T08:26:20.289Z,503.00
2023-05-14T08:27:20.387Z,502.00
2023-05-14T08:28:20.424Z,503.00
2023-05-14T08:29:20.477Z,501.00
2023-05-14T08:30:20.545Z,500.00
2023-05-14T08:31:20.658Z,500.00
2023-05-14T08:32:23.707Z,511.00
2023-05-14T08:33:20.669Z,508.00
2023-05-14T08:34:20.670Z,501.00
2023-05-14T08:35:20.686Z,501.00
2023-05-14T08:36:20.686Z,502.00
2023-05-14T08:37:20.698Z,500.00
2023-05-14T08:38:20.703Z,493.00
2023-05-14T08:39:20.722Z,506.00
2023-05-14T08:40:20.741Z,506.00
2023-05-14T08:41:20.716Z,506.00
2023-05-14T08:42:20.724Z,498.00
2023-05-14T08:43:20.714Z,494.00
2023-05-14T08:44:20.706Z,485.00
2023-05-14T08:45:20.721Z,477.00
2023-05-14T08:46:20.722Z,483.00
2023-05-14T08:47:20.755Z,500.00
2023-05-14T08:48:20.853Z,506.00
2023-05-14T08:49:20.840Z,524.00
2023-05-14T08:50:23.046Z,552.00
2023-05-14T08:51:20.742Z,580.00
2023-05-14T08:52:20.765Z,613.00
2023-05-14T08:53:20.770Z,630.00
2023-05-14T08:54:20.767Z,650.00
2023-05-14T08:55:20.777Z,676.00
2023-05-14T08:56:20.774Z,712.00
2023-05-14T08:57:20.779Z,769.00
2023-05-14T08:58:20.803Z,822.00
2023-05-14T08:59:20.799Z,885.00
2023-05-14T09:00:20.854Z,906.00
2023-05-14T09:01:20.818Z,964.00
2023-05-14T09:02:20.923Z,1026.00
2023-05-14T09:03:20.830Z,1010.00
2023-05-14T09:04:20.883Z,1080.00
2023-05-14T09:05:20.809Z,1126.00
2023-05-14T09:06:20.825Z,1152.00
2023-05-14T09:07:20.816Z,1171.00
2023-05-14T09:08:20.810Z,1250.00
2023-05-14T09:09:20.818Z,1257.00
2023-05-14T09:10:20.813Z,1289.00
2023-05-14T09:11:20.808Z,1321.00
2023-05-14T09:12:20.822Z,1347.00
2023-05-14T09:13:20.828Z,1397.00
2023-05-14T09:14:20.813Z,1458.00
2023-05-14T09:15:20.835Z,1462.00
2023-05-14T09:16:20.842Z,1508.00
2023-05-14T09:17:20.854Z,1506.00
2023-05-14T09:18:20.805Z,1561.00
2023-05-14T09:19:20.860Z,1564.00
2023-05-14T09:20:20.974Z,1629.00
2023-05-14T09:21:20.798Z,1622.00
2023-05-14T09:22:20.816Z,1632.00
2023-05-14T09:23:20.797Z,1686.00
2023-05-14T09:24:20.807Z,1728.00
2023-05-14T09:25:20.799Z,1756.00
2023-05-14T09:26:20.806Z,1753.00
2023-05-14T09:27:20.844Z,1788.00
2023-05-14T09:28:20.808Z,1794.00
2023-05-14T09:29:20.807Z,1827.00
2023-05-14T09:30:20.844Z,1856.00
2023-05-14T09:31:20.817Z,1848.00
2023-05-14T09:32:20.812Z,1893.00
2023-05-14T09:33:20.815Z,1902.00
2023-05-14T09:34:20.827Z,1948.00
2023-05-14T09:35:20.830Z,1945.00
2023-05-14T09:36:20.793Z,1974.00
2023-05-14T09:37:20.803Z,1986.00
2023-05-14T09:38:20.801Z,2006.00
2023-05-14T09:39:20.802Z,2015.00
2023-05-14T09:40:20.932Z,2024.00
2023-05-14T09:41:20.796Z,2064.00
2023-05-14T09:42:20.796Z,2052.00
2023-05-14T09:43:20.799Z,2074.00
2023-05-14T09:44:20.808Z,2097.00
2023-05-14T09:45:20.800Z,2109.00
2023-05-14T09:46:20.795Z,2110.00
2023-05-14T09:47:20.903Z,2116.00
2023-05-14T09:48:20.828Z,2125.00
2023-05-14T09:49:20.804Z,2141.00
2023-05-14T09:50:20.818Z,2182.00
2023-05-14T09:51:20.795Z,2162.00
2023-05-14T09:52:20.794Z,2194.00
2023-05-14T09:53:20.795Z,2188.00
2023-05-14T09:54:20.877Z,2205.00
2023-05-14T09:55:20.947Z,2211.00
2023-05-14T09:56:21.034Z,2221.00
2023-05-14T09:57:21.103Z,2233.00
2023-05-14T09:58:21.158Z,2236.00
2023-05-14T09:59:21.261Z,2242.00
2023-05-14T10:00:21.404Z,2248.00
2023-05-14T10:01:21.380Z,2252.00
2023-05-14T10:02:21.497Z,2271.00
2023-05-14T10:03:21.509Z,2282.00
2023-05-14T10:04:21.644Z,2281.00
2023-05-14T10:05:21.626Z,2287.00
2023-05-14T10:06:21.694Z,2281.00
2023-05-14T10:07:21.773Z,2284.00
2023-05-14T10:08:21.832Z,2303.00
2023-05-14T10:09:21.895Z,2311.00
2023-05-14T10:10:22.042Z,2320.00
2023-05-14T10:11:22.045Z,2307.00
2023-05-14T10:12:22.102Z,2321.00
2023-05-14T10:13:22.163Z,2332.00
2023-05-14T10:14:22.230Z,2332.00
2023-05-14T10:15:22.293Z,2337.00
2023-05-14T10:16:22.375Z,2347.00
2023-05-14T10:17:22.414Z,2355.00
2023-05-14T10:18:22.485Z,2355.00
2023-05-14T10:19:22.825Z,2349.00
2023-05-14T10:20:22.777Z,2347.00
2023-05-14T10:21:22.686Z,2361.00
2023-05-14T10:22:22.771Z,2367.00
2023-05-14T10:23:22.798Z,2382.00
2023-05-14T10:24:22.793Z,2382.00
2023-05-14T10:25:22.785Z,2383.00
2023-05-14T10:26:24.015Z,2384.00
2023-05-14T10:27:22.792Z,2397.00
2023-05-14T10:28:22.798Z,2393.00
2023-05-14T10:29:22.778Z,2409.00
2023-05-14T10:30:22.952Z,2402.00
2023-05-14T10:31:22.807Z,2403.00
2023-05-14T10:32:22.773Z,2404.00
2023-05-14T10:33:22.767Z,2409.00
2023-05-14T10:34:22.755Z,2404.00
2023-05-14T10:35:22.769Z,2408.00
2023-05-14T10:36:22.744Z,2413.00
2023-05-14T10:37:22.759Z,2425.00
2023-05-14T10:38:22.759Z,2428.00
2023-05-14T10:39:22.730Z,2425.00
2023-05-14T10:40:22.981Z,2437.00
2023-05-14T10:41:22.733Z,2436.00
2023-05-14T10:42:22.801Z,2422.00
2023-05-14T10:43:22.858Z,2440.00
2023-05-14T10:44:22.933Z,2453.00
2023-05-14T10:45:22.985Z,2455.00
2023-05-14T10:46:23.087Z,2457.00
2023-05-14T10:47:23.121Z,2440.00
2023-05-14T10:48:23.213Z,2444.00
2023-05-14T10:49:36.089Z,2452.00
2023-05-14T10:50:24.543Z,2453.00
2023-05-14T10:51:23.285Z,2454.00
2023-05-14T10:52:23.225Z,2450.00
2023-05-14T10:53:23.221Z,2454.00
2023-05-14T10:54:23.212Z,2470.00
2023-05-14T10:55:23.216Z,2457.00
2023-05-14T10:56:23.211Z,2457.00
2023-05-14T10:57:23.227Z,2481.00
2023-05-14T10:58:23.206Z,2480.00
2023-05-14T10:59:23.268Z,2473.00
2023-05-14T11:00:23.463Z,2452.00
2023-05-14T11:01:23.416Z,2468.00
2023-05-14T11:02:23.517Z,2475.00
2023-05-14T11:03:23.518Z,2476.00
2023-05-14T11:04:23.560Z,2483.00
2023-05-14T11:05:23.615Z,2471.00
2023-05-14T11:06:23.676Z,2467.00
2023-05-14T11:07:23.782Z,2466.00
2023-05-14T11:08:26.490Z,2479.00
2023-05-14T11:09:23.776Z,2499.00
2023-05-14T11:10:24.193Z,2473.00
2023-05-14T11:11:23.769Z,2475.00
2023-05-14T11:12:23.766Z,2471.00
2023-05-14T11:13:23.772Z,2478.00
2023-05-14T11:14:23.767Z,2476.00
2023-05-14T11:15:23.775Z,2478.00
2023-05-14T11:16:24.205Z,2479.00
2023-05-14T11:17:23.874Z,2480.00
2023-05-14T11:18:23.786Z,2480.00
2023-05-14T11:19:23.784Z,2480.00
2023-05-14T11:20:24.053Z,2485.00
2023-05-14T11:22:18.253Z,500.00
2023-05-14T11:23:18.274Z,500.00
2023-05-14T11:24:18.309Z,500.00
2023-05-14T11:25:18.377Z,500.00
2023-05-14T11:26:20.845Z,500.00
2023-05-14T11:27:18.376Z,501.00
2023-05-14T11:28:18.374Z,503.00
2023-05-14T11:29:18.382Z,503.00
2023-05-14T11:30:18.456Z,503.00
2023-05-14T11:31:18.308Z,504.00
2023-05-14T11:32:18.325Z,506.00
2023-05-14T11:33:18.290Z,506.00
2023-05-14T11:34:18.228Z,505.00
2023-05-14T11:35:18.192Z,504.00
2023-05-14T11:36:18.180Z,503.00
2023-05-14T11:37:18.152Z,500.00
2023-05-14T11:38:18.163Z,505.00
2023-05-14T11:39:18.093Z,507.00
2023-05-14T11:40:18.197Z,503.00
2023-05-14T11:41:18.060Z,505.00
2023-05-14T11:42:18.021Z,510.00
2023-05-14T11:43:18.000Z,507.00
2023-05-14T11:44:17.978Z,501.00
2023-05-14T11:45:17.950Z,514.00
2023-05-14T11:46:18.040Z,508.00
2023-05-14T11:47:17.892Z,506.00
2023-05-14T11:48:17.892Z,510.00
2023-05-14T11:49:17.853Z,513.00
2023-05-14T11:50:17.829Z,512.00
2023-05-14T11:51:17.874Z,510.00
2023-05-14T11:52:17.808Z,513.00
2023-05-14T11:53:17.781Z,506.00
2023-05-14T11:54:17.760Z,514.00
2023-05-14T11:55:17.738Z,510.00
2023-05-14T11:56:17.737Z,514.00
2023-05-14T11:57:17.704Z,513.00
2023-05-14T11:58:17.677Z,517.00
2023-05-14T11:59:17.651Z,514.00
2023-05-14T12:00:17.617Z,516.00
2023-05-14T12:01:17.592Z,517.00
2023-05-14T12:02:17.665Z,514.00
2023-05-14T12:03:17.766Z,518.00
2023-05-14T12:04:17.729Z,514.00
2023-05-14T12:05:17.715Z,523.00
2023-05-14T12:06:17.751Z,516.00
2023-05-14T12:07:17.796Z,521.00
2023-05-14T12:08:17.769Z,521.00
2023-05-14T12:09:17.750Z,518.00
2023-05-14T12:10:17.732Z,521.00
2023-05-14T12:11:17.685Z,525.00
2023-05-14T12:12:17.669Z,525.00
2023-05-14T12:13:17.642Z,525.00
2023-05-14T12:14:17.607Z,525.00
2023-05-14T12:15:17.577Z,524.00
2023-05-14T12:16:17.617Z,527.00
2023-05-14T12:17:17.623Z,524.00
2023-05-14T12:18:24.590Z,527.00
2023-05-14T12:19:18.666Z,527.00